Last 24 Hours

Pinyon

10 Minute Data | America/Los_Angeles
as of 9/3/26 2:14 AM PDT
Date & Time Temp (°F) Dew Pt (°F) RH (%) Wind Spd (mph) Wind Dir (°) Wind Gust (mph) Wind Gst Dir (°) Daily Max Temp (°F) Daily Min Temp (°F)
9/3/26 - 0210 63.9 14.4 14 22.9 NW | 326 30.5 NNW | 331 64.0 63.0
9/3/26 - 0200 63.6 17.6 17 23.1 NNW | 327 29.7 NNW | 332 64.0 63.0
9/3/26 - 0150 63.6 20.1 19 24.1 NNW | 330 32.0 NW | 325 64.0 63.0
9/3/26 - 0140 63.9 20.7 19 23.8 NNW | 331 31.6 NNW | 336 64.0 63.0
9/3/26 - 0130 63.7 23.4 21 23.1 NNW | 331 31.0 NNW | 346 63.9 63.0
9/3/26 - 0120 63.4 27.7 26 23.2 NNW | 328 32.9 NNW | 343 63.6 63.0
9/3/26 - 0110 63.1 30.0 29 22.1 NNW | 332 29.8 NNW | 334 63.3 63.0
9/3/26 - 0100 63.6 31.2 29 20.4 NNW | 334 28.0 NNW | 330 80.8 62.3
9/3/26 - 0050 64.1 33.3 32 21.5 NNW | 332 29.6 NNW | 343 80.8 62.3
9/3/26 - 0040 64.1 35.1 34 18.1 NNW | 330 26.9 NNW | 330 80.8 62.3
9/3/26 - 0030 64.2 36.4 36 17.0 NNW | 329 25.3 NNW | 341 80.8 62.3
9/3/26 - 0020 64.5 36.9 36 17.3 NNW | 329 23.4 NW | 324 80.8 62.3
9/3/26 - 0010 64.9 36.3 35 18.4 NNW | 330 27.3 NNW | 337 80.8 62.3
9/3/26 - 0000 65.3 35.5 33 18.5 NNW | 332 28.3 NW | 326 80.8 62.3
9/2/26 - 2350 65.4 34.8 32 20.5 NNW | 330 28.6 NNW | 331 80.8 62.3
9/2/26 - 2340 65.4 34.4 31 17.0 NNW | 333 26.2 NNW | 342 80.8 62.3
9/2/26 - 2330 65.5 34.4 31 19.2 NNW | 333 26.1 NNW | 339 80.8 62.3
9/2/26 - 2320 65.6 33.8 31 18.6 NNW | 332 27.1 NNW | 336 80.8 62.3
9/2/26 - 2310 65.6 32.4 29 17.2 NW | 326 25.4 NW | 312 80.8 62.3
9/2/26 - 2300 65.8 30.9 27 16.3 NW | 325 23.8 NW | 320 80.8 62.3
9/2/26 - 2250 66.0 29.5 25 18.7 NW | 323 27.2 NW | 322 80.8 62.3
9/2/26 - 2240 65.8 27.6 24 17.1 NNW | 327 27.4 NW | 322 80.8 62.3
9/2/26 - 2230 65.4 24.4 21 18.2 NW | 325 26.5 NNW | 338 80.8 62.3
9/2/26 - 2220 65.0 24.0 21 18.7 NW | 326 26.4 NNW | 340 80.8 62.3
9/2/26 - 2210 64.6 25.9 23 17.2 NNW | 328 25.0 NW | 324 80.8 62.3
9/2/26 - 2200 64.7 26.9 24 17.6 NNW | 328 26.0 NNW | 340 80.8 62.3
9/2/26 - 2150 65.0 28.7 25 17.3 NNW | 331 25.1 NNW | 334 80.8 62.3
9/2/26 - 2140 65.2 30.3 27 16.5 NNW | 330 25.8 NNW | 333 80.8 62.3
9/2/26 - 2130 65.8 30.7 27 13.5 NNW | 336 22.1 NW | 323 80.8 62.3
9/2/26 - 2120 66.1 32.3 28 13.0 NNW | 341 18.8 NNW | 334 80.8 62.3
9/2/26 - 2110 66.0 32.4 28 13.1 NNW | 338 18.8 NNW | 329 80.8 62.3
9/2/26 - 2100 66.4 31.8 27 13.8 NNW | 331 21.1 NNW | 330 80.8 62.3
9/2/26 - 2050 66.4 31.1 27 13.2 NW | 322 20.2 NW | 322 80.8 62.3
9/2/26 - 2040 66.6 30.8 26 12.4 NW | 311 21.6 NW | 318 80.8 62.3
9/2/26 - 2030 66.7 30.8 26 11.3 NW | 307 17.2 WNW | 298 80.8 62.3
9/2/26 - 2020 67.1 31.0 26 10.6 NW | 309 17.0 NW | 304 80.8 62.3
9/2/26 - 2010 67.7 30.4 25 13.4 NW | 315 21.3 NW | 313 80.8 62.3
9/2/26 - 2000 68.2 29.7 24 16.2 NW | 324 24.2 NNW | 332 80.8 62.3
9/2/26 - 1950 68.6 29.4 23 16.2 NNW | 327 23.1 NNW | 328 80.8 62.3
9/2/26 - 1940 69.1 27.6 21 16.8 NNW | 329 25.1 NW | 324 80.8 62.3
9/2/26 - 1930 69.6 26.8 20 16.6 NNW | 335 25.3 NW | 326 80.8 62.3
9/2/26 - 1920 70.2 24.7 18 17.3 NNW | 337 24.0 NNW | 338 80.8 62.3
9/2/26 - 1910 71.0 21.9 16 18.2 NNW | 337 26.8 NNW | 333 80.8 62.3
9/2/26 - 1900 71.8 20.9 15 21.2 NNW | 338 29.5 NNW | 343 80.8 62.3
9/2/26 - 1850 72.8 19.3 13 21.2 NNW | 338 30.8 NNW | 343 80.8 62.3
9/2/26 - 1840 73.5 20.2 13 20.9 NNW | 337 31.9 NNW | 331 80.8 62.3
9/2/26 - 1830 74.0 21.1 14 21.1 NNW | 337 28.9 NNW | 342 80.8 62.3
9/2/26 - 1820 74.5 18.4 12 20.6 NNW | 338 29.4 NNW | 345 80.8 62.3
9/2/26 - 1810 75.1 21.6 13 20.1 NNW | 334 28.6 NNW | 338 80.8 62.3
9/2/26 - 1800 75.4 23.0 14 19.3 NNW | 337 28.6 N | 353 80.8 62.3
9/2/26 - 1750 75.8 23.7 14 19.9 NNW | 342 29.3 NNW | 344 80.8 62.3
9/2/26 - 1740 76.0 25.9 16 21.3 NNW | 342 28.4 NNW | 330 80.8 62.3
9/2/26 - 1730 77.0 27.2 16 19.2 NNW | 342 25.6 N | 351 80.8 62.3
9/2/26 - 1720 77.0 28.7 17 17.1 NNW | 340 25.7 NW | 324 80.8 62.3
9/2/26 - 1710 77.6 28.7 17 16.6 NNW | 340 25.6 NNW | 330 80.8 62.3
9/2/26 - 1700 77.5 28.4 16 17.3 NNW | 342 26.1 N | 351 80.8 62.3
9/2/26 - 1650 77.9 27.8 16 16.3 NNW | 334 26.2 NNW | 333 80.8 62.3
9/2/26 - 1640 78.0 28.6 16 16.2 N | 355 24.6 NNW | 340 80.8 62.3
9/2/26 - 1630 78.1 27.3 15 18.7 NNW | 344 26.4 NNW | 332 80.8 62.3
9/2/26 - 1620 78.5 24.3 13 18.3 NNW | 344 27.1 NNW | 333 80.8 62.3
9/2/26 - 1610 78.9 23.1 13 17.7 NNW | 338 26.9 NNW | 339 80.8 62.3
9/2/26 - 1600 78.6 23.1 13 19.9 NNW | 337 30.0 NNW | 338 80.8 62.3
9/2/26 - 1550 79.1 23.9 13 20.7 NNW | 341 30.9 NNW | 335 80.8 62.3
9/2/26 - 1540 79.3 25.8 14 19.9 NNW | 336 30.3 NNW | 340 80.8 62.3
9/2/26 - 1530 79.6 26.0 14 19.6 NNW | 334 29.3 NNW | 334 80.8 62.3
9/2/26 - 1520 79.6 26.4 14 19.4 NNW | 332 31.6 NNW | 347 80.8 62.3
9/2/26 - 1510 79.3 25.8 14 21.1 NNW | 336 33.8 NNW | 347 80.8 62.3
9/2/26 - 1500 79.2 24.7 13 21.7 NNW | 337 31.5 N | 9 80.8 62.3
9/2/26 - 1450 79.1 24.0 13 23.5 NNW | 336 33.3 NNW | 332 80.8 62.3
9/2/26 - 1440 79.3 22.8 12 21.8 NNW | 336 33.5 NNW | 331 80.8 62.3
9/2/26 - 1430 79.5 20.2 11 20.4 NNW | 337 30.6 NNW | 337 80.8 62.3
9/2/26 - 1420 79.7 19.0 10 21.1 NNW | 334 30.4 N | 352 80.8 62.3
9/2/26 - 1410 80.0 18.7 10 21.1 NNW | 333 33.2 NW | 325 80.8 62.3
9/2/26 - 1400 79.5 18.6 10 19.6 NNW | 341 29.7 NNW | 334 80.2 62.3
9/2/26 - 1350 79.7 18.4 10 18.2 NNW | 336 30.8 NNW | 338 80.2 62.3
9/2/26 - 1340 79.2 17.6 10 20.6 NNW | 334 30.9 NNW | 332 80.1 62.3
9/2/26 - 1330 78.9 17.9 10 21.4 NNW | 334 28.2 NW | 319 80.1 62.3
9/2/26 - 1320 79.4 18.1 10 22.2 NNW | 331 32.5 NW | 318 80.1 62.3
9/2/26 - 1310 78.8 17.2 10 21.2 NNW | 334 32.1 NNW | 339 79.6 62.3
9/2/26 - 1300 78.4 17.0 10 23.2 NNW | 338 32.8 NNW | 338 79.6 62.3
9/2/26 - 1250 78.7 16.7 10 21.6 NNW | 336 32.3 NNW | 337 79.6 62.3
9/2/26 - 1240 77.8 16.6 10 22.5 NNW | 335 31.6 NNW | 342 78.9 62.3
9/2/26 - 1230 78.1 16.7 10 21.4 NNW | 339 33.5 NNW | 341 78.9 62.3
9/2/26 - 1220 77.9 16.9 10 22.6 NNW | 336 31.9 NNW | 339 78.8 62.3
9/2/26 - 1210 77.9 17.4 10 23.0 NNW | 334 32.7 N | 351 78.8 62.3
9/2/26 - 1200 77.8 18.4 11 20.9 NNW | 341 29.9 NNW | 338 78.8 62.3
9/2/26 - 1150 77.5 18.6 11 22.0 NNW | 340 31.6 NNW | 336 78.2 62.3
9/2/26 - 1140 77.0 18.8 11 22.3 NNW | 337 31.5 NNW | 340 78.2 62.3
9/2/26 - 1130 77.2 18.6 11 21.5 NNW | 334 30.2 NNW | 338 78.2 62.3
9/2/26 - 1120 77.1 19.6 11 20.8 NNW | 337 28.9 NNW | 336 77.9 62.3
9/2/26 - 1110 76.9 19.9 12 19.6 NNW | 338 30.9 N | 351 77.9 62.3
9/2/26 - 1100 76.6 19.8 12 19.3 NNW | 331 30.7 N | 1 77.0 62.3
9/2/26 - 1050 76.1 19.0 12 21.0 NNW | 335 29.9 NNW | 336 77.0 62.3
9/2/26 - 1040 75.9 18.3 11 20.1 NNW | 333 32.2 NNW | 329 77.0 62.3
9/2/26 - 1030 76.2 18.6 11 18.9 NNW | 329 29.7 NNW | 331 77.0 62.3
9/2/26 - 1020 76.0 18.2 11 19.8 NNW | 337 26.7 NNW | 335 77.0 62.3
9/2/26 - 1010 76.4 18.4 11 17.2 NNW | 336 27.6 NW | 322 77.0 62.3
9/2/26 - 1000 75.8 18.6 11 16.5 NNW | 339 25.3 NNW | 330 76.3 62.3
9/2/26 - 0950 75.4 18.2 11 17.9 NNW | 343 25.9 NNW | 329 75.7 62.3
9/2/26 - 0940 74.7 19.6 12 17.3 NNW | 337 25.1 NNW | 347 75.3 62.3
9/2/26 - 0930 73.8 20.2 13 17.0 NNW | 332 24.8 NNW | 340 74.5 62.3
9/2/26 - 0920 73.1 20.0 13 18.8 NNW | 332 26.7 NNW | 340 73.7 62.3
9/2/26 - 0910 72.7 19.9 14 18.8 NNW | 332 27.2 NW | 326 73.0 62.3
9/2/26 - 0900 72.0 19.8 14 19.6 NNW | 329 28.6 NNW | 328 72.7 62.3
9/2/26 - 0850 71.4 19.6 14 21.2 NNW | 329 30.0 NNW | 346 71.7 62.3
9/2/26 - 0840 70.9 19.4 14 21.7 NNW | 327 30.2 NNW | 333 71.1 62.3
9/2/26 - 0830 70.6 19.3 14 20.9 NNW | 328 30.8 NW | 320 70.8 62.3
9/2/26 - 0820 70.3 19.0 14 21.8 NNW | 327 32.2 NNW | 329 70.4 62.3
9/2/26 - 0810 70.2 18.8 14 21.5 NNW | 328 28.9 NNW | 339 70.3 62.3
9/2/26 - 0800 70.0 18.8 14 19.4 NNW | 328 27.0 NW | 323 70.0 62.3
9/2/26 - 0750 69.4 18.6 14 20.1 NNW | 329 26.5 NW | 322 69.7 62.3
9/2/26 - 0740 68.9 18.6 14 19.8 NNW | 329 27.2 NNW | 347 69.3 62.3
9/2/26 - 0730 68.1 19.1 15 19.5 NNW | 330 27.2 NW | 321 68.6 62.3
9/2/26 - 0720 67.4 19.4 16 19.5 NNW | 331 26.8 NNW | 332 67.6 62.3
9/2/26 - 0710 67.1 19.3 16 21.7 NNW | 332 29.8 NNW | 335 67.3 62.3
9/2/26 - 0700 66.4 19.1 16 20.5 NNW | 330 28.2 NNW | 335 66.7 62.3
9/2/26 - 0650 65.7 19.2 17 20.6 NNW | 330 28.5 NW | 325 65.9 62.3
9/2/26 - 0640 65.2 19.7 17 20.2 NNW | 330 28.6 NW | 325 65.4 62.3
9/2/26 - 0630 65.0 20.2 18 20.8 NNW | 330 28.4 NNW | 332 65.2 62.3
9/2/26 - 0620 64.8 21.2 19 21.2 NNW | 330 28.7 NW | 317 65.0 62.3
9/2/26 - 0610 64.6 22.5 20 21.5 NNW | 332 28.9 NNW | 331 64.7 62.3
9/2/26 - 0600 64.4 24.7 22 22.1 NNW | 333 28.1 NNW | 330 64.7 62.3
9/2/26 - 0550 64.0 26.7 24 21.4 NNW | 334 28.4 NNW | 332 64.7 62.3
9/2/26 - 0540 64.2 28.1 25 21.6 NNW | 334 28.2 NNW | 336 64.7 62.3
9/2/26 - 0530 64.2 29.7 27 21.6 NNW | 333 28.4 NNW | 339 64.7 62.3
9/2/26 - 0520 64.4 31.2 29 21.2 NNW | 335 28.1 NNW | 328 64.7 62.3
9/2/26 - 0510 64.6 31.6 29 22.3 NNW | 332 29.4 NNW | 329 64.7 62.3
9/2/26 - 0500 64.3 31.6 29 21.8 NNW | 332 28.4 NNW | 338 64.5 62.3
9/2/26 - 0450 64.1 30.0 28 21.6 NNW | 330 29.2 NNW | 334 64.2 62.3
9/2/26 - 0440 63.9 28.5 26 21.6 NNW | 327 28.3 NNW | 331 64.1 62.3
9/2/26 - 0430 63.9 26.8 24 19.8 NNW | 329 28.5 NW | 323 64.1 62.3
9/2/26 - 0420 64.0 27.1 25 19.7 NNW | 329 26.0 NNW | 327 64.1 62.3
9/2/26 - 0410 63.8 27.6 25 21.0 NNW | 327 27.2 NNW | 331 64.1 62.3
9/2/26 - 0400 63.7 26.3 24 20.0 NNW | 329 27.6 NW | 326 64.1 62.3
9/2/26 - 0350 63.8 24.7 22 21.3 NW | 326 28.9 NW | 326 64.1 62.3
9/2/26 - 0340 63.7 23.6 21 23.6 NW | 321 32.6 NW | 321 64.1 62.3
9/2/26 - 0330 63.7 23.5 21 22.5 NW | 321 32.6 NW | 322 64.1 62.3
9/2/26 - 0320 63.8 23.8 22 23.6 NW | 325 33.0 NW | 320 64.1 62.3
9/2/26 - 0310 63.9 23.9 22 23.5 NW | 326 32.2 NW | 325 64.1 62.3
9/2/26 - 0300 63.8 24.1 22 23.8 NNW | 327 32.7 NNW | 330 64.0 62.3
9/2/26 - 0250 63.4 24.5 23 23.3 NW | 326 32.0 NNW | 331 64.0 62.3
9/2/26 - 0240 63.4 24.6 23 22.9 NW | 324 30.9 NNW | 330 64.0 62.3
9/2/26 - 0230 63.6 24.7 23 22.4 NW | 326 30.1 NNW | 327 64.0 62.3
9/2/26 - 0220 63.8 24.9 23 22.6 NNW | 329 30.5 NNW | 335 64.0 62.3
9/2/26 - 0210 63.7 25.3 23 22.5 NNW | 328 29.9 NNW | 331 64.0 62.3
Max 80.0 36.9 36 24.1 - 33.8 - 80.8 63.0
Avg 70.5 24.3 19 19.7 - 28.3 - - -
Min 63.1 14.4 10 10.6 - 17.0 - 63.3 62.3